sensor_id;sensor_type;location;lat;lon;timestamp;temperature;humidity
8332;DHT22;4203;48.144;14.118;2022-08-21T00:00:11;16.70;99.90
8332;DHT22;4203;48.144;14.118;2022-08-21T00:02:45;16.60;99.90
8332;DHT22;4203;48.144;14.118;2022-08-21T00:05:13;16.70;99.90
8332;DHT22;4203;48.144;14.118;2022-08-21T00:07:41;16.70;99.90
8332;DHT22;4203;48.144;14.118;2022-08-21T00:10:08;16.70;99.90
8332;DHT22;4203;48.144;14.118;2022-08-21T00:12:35;16.70;99.90
8332;DHT22;4203;48.144;14.118;2022-08-21T00:15:06;16.70;99.90
8332;DHT22;4203;48.144;14.118;2022-08-21T00:17:34;16.70;99.90
8332;DHT22;4203;48.144;14.118;2022-08-21T00:20:02;16.70;99.90
8332;DHT22;4203;48.144;14.118;2022-08-21T00:22:35;16.70;99.90
8332;DHT22;4203;48.144;14.118;2022-08-21T00:25:04;16.70;99.90
8332;DHT22;4203;48.144;14.118;2022-08-21T00:27:31;16.70;99.90
8332;DHT22;4203;48.144;14.118;2022-08-21T00:30:00;16.70;99.90
8332;DHT22;4203;48.144;14.118;2022-08-21T00:32:29;16.70;99.90
8332;DHT22;4203;48.144;14.118;2022-08-21T00:34:56;16.70;99.90
8332;DHT22;4203;48.144;14.118;2022-08-21T00:37:31;16.70;99.90
8332;DHT22;4203;48.144;14.118;2022-08-21T00:40:02;16.70;99.90
8332;DHT22;4203;48.144;14.118;2022-08-21T00:42:30;16.70;99.90
8332;DHT22;4203;48.144;14.118;2022-08-21T00:44:57;16.70;99.90
8332;DHT22;4203;48.144;14.118;2022-08-21T00:47:24;16.80;99.90
8332;DHT22;4203;48.144;14.118;2022-08-21T00:49:53;16.80;99.90
8332;DHT22;4203;48.144;14.118;2022-08-21T00:52:23;16.70;99.90
8332;DHT22;4203;48.144;14.118;2022-08-21T00:54:52;16.70;99.90
8332;DHT22;4203;48.144;14.118;2022-08-21T00:57:25;16.70;99.90
8332;DHT22;4203;48.144;14.118;2022-08-21T00:59:55;16.80;99.90
8332;DHT22;4203;48.144;14.118;2022-08-21T01:02:22;16.70;99.90
8332;DHT22;4203;48.144;14.118;2022-08-21T01:04:50;16.70;99.90
8332;DHT22;4203;48.144;14.118;2022-08-21T01:07:18;16.70;99.90
8332;DHT22;4203;48.144;14.118;2022-08-21T01:09:47;16.80;99.90
8332;DHT22;4203;48.144;14.118;2022-08-21T01:12:15;16.80;99.90
8332;DHT22;4203;48.144;14.118;2022-08-21T01:14:43;16.80;99.90
8332;DHT22;4203;48.144;14.118;2022-08-21T01:17:12;16.70;99.90
8332;DHT22;4203;48.144;14.118;2022-08-21T01:19:41;16.80;99.90
8332;DHT22;4203;48.144;14.118;2022-08-21T01:22:09;16.80;99.90
8332;DHT22;4203;48.144;14.118;2022-08-21T01:24:37;16.80;99.90
8332;DHT22;4203;48.144;14.118;2022-08-21T01:27:04;16.80;99.90
8332;DHT22;4203;48.144;14.118;2022-08-21T01:29:38;16.80;99.90
8332;DHT22;4203;48.144;14.118;2022-08-21T01:32:08;16.80;99.90
8332;DHT22;4203;48.144;14.118;2022-08-21T01:34:38;16.80;99.90
8332;DHT22;4203;48.144;14.118;2022-08-21T01:37:06;16.80;99.90
8332;DHT22;4203;48.144;14.118;2022-08-21T01:39:35;16.90;99.90
8332;DHT22;4203;48.144;14.118;2022-08-21T01:42:03;16.80;99.90
8332;DHT22;4203;48.144;14.118;2022-08-21T01:44:31;16.80;99.90
8332;DHT22;4203;48.144;14.118;2022-08-21T01:47:00;16.80;99.90
8332;DHT22;4203;48.144;14.118;2022-08-21T01:49:27;16.80;99.90
8332;DHT22;4203;48.144;14.118;2022-08-21T01:51:54;16.80;99.90
8332;DHT22;4203;48.144;14.118;2022-08-21T01:54:21;16.80;99.90
8332;DHT22;4203;48.144;14.118;2022-08-21T01:56:52;16.80;99.90
8332;DHT22;4203;48.144;14.118;2022-08-21T01:59:20;16.80;99.90
8332;DHT22;4203;48.144;14.118;2022-08-21T02:01:48;16.80;99.90
8332;DHT22;4203;48.144;14.118;2022-08-21T02:04:16;16.80;99.90
8332;DHT22;4203;48.144;14.118;2022-08-21T02:06:43;16.80;99.90
8332;DHT22;4203;48.144;14.118;2022-08-21T02:09:11;16.90;99.90
8332;DHT22;4203;48.144;14.118;2022-08-21T02:11:40;16.90;99.90
8332;DHT22;4203;48.144;14.118;2022-08-21T02:14:10;16.80;99.90
8332;DHT22;4203;48.144;14.118;2022-08-21T02:16:38;16.80;99.90
8332;DHT22;4203;48.144;14.118;2022-08-21T02:19:06;16.90;99.90
8332;DHT22;4203;48.144;14.118;2022-08-21T02:21:33;16.90;99.90
8332;DHT22;4203;48.144;14.118;2022-08-21T02:24:00;16.80;99.90
8332;DHT22;4203;48.144;14.118;2022-08-21T02:26:27;16.90;99.90
8332;DHT22;4203;48.144;14.118;2022-08-21T02:28:55;16.90;99.90
8332;DHT22;4203;48.144;14.118;2022-08-21T02:31:23;16.90;99.90
8332;DHT22;4203;48.144;14.118;2022-08-21T02:33:51;17.00;99.90
8332;DHT22;4203;48.144;14.118;2022-08-21T02:36:19;16.90;99.90
8332;DHT22;4203;48.144;14.118;2022-08-21T02:38:46;16.90;99.90
8332;DHT22;4203;48.144;14.118;2022-08-21T02:41:15;16.80;99.90
8332;DHT22;4203;48.144;14.118;2022-08-21T02:43:43;16.80;99.90
8332;DHT22;4203;48.144;14.118;2022-08-21T02:46:13;16.80;99.90
8332;DHT22;4203;48.144;14.118;2022-08-21T02:48:42;16.80;99.90
8332;DHT22;4203;48.144;14.118;2022-08-21T02:51:11;16.80;99.90
8332;DHT22;4203;48.144;14.118;2022-08-21T02:53:40;16.80;99.90
8332;DHT22;4203;48.144;14.118;2022-08-21T02:56:11;16.80;99.90
8332;DHT22;4203;48.144;14.118;2022-08-21T02:58:41;16.80;99.90
8332;DHT22;4203;48.144;14.118;2022-08-21T03:01:09;16.80;99.90
8332;DHT22;4203;48.144;14.118;2022-08-21T03:03:38;16.80;99.90
8332;DHT22;4203;48.144;14.118;2022-08-21T03:06:10;16.90;99.90
8332;DHT22;4203;48.144;14.118;2022-08-21T03:08:38;16.90;99.90
8332;DHT22;4203;48.144;14.118;2022-08-21T03:11:06;16.90;99.90
8332;DHT22;4203;48.144;14.118;2022-08-21T03:13:33;16.90;99.90
8332;DHT22;4203;48.144;14.118;2022-08-21T03:16:01;16.90;99.90
8332;DHT22;4203;48.144;14.118;2022-08-21T03:18:28;16.80;99.90
8332;DHT22;4203;48.144;14.118;2022-08-21T03:20:55;16.80;99.90
8332;DHT22;4203;48.144;14.118;2022-08-21T03:23:24;16.80;99.90
8332;DHT22;4203;48.144;14.118;2022-08-21T03:25:51;16.80;99.90
8332;DHT22;4203;48.144;14.118;2022-08-21T03:28:20;16.70;99.90
8332;DHT22;4203;48.144;14.118;2022-08-21T03:30:50;16.70;99.90
8332;DHT22;4203;48.144;14.118;2022-08-21T03:33:18;16.70;99.90
8332;DHT22;4203;48.144;14.118;2022-08-21T03:35:48;16.70;99.90
8332;DHT22;4203;48.144;14.118;2022-08-21T03:38:19;16.80;99.90
8332;DHT22;4203;48.144;14.118;2022-08-21T03:40:47;16.70;99.90
8332;DHT22;4203;48.144;14.118;2022-08-21T03:43:15;16.70;99.90
8332;DHT22;4203;48.144;14.118;2022-08-21T03:45:42;16.70;99.90
8332;DHT22;4203;48.144;14.118;2022-08-21T03:48:09;16.60;99.90
8332;DHT22;4203;48.144;14.118;2022-08-21T03:50:40;16.70;99.90
8332;DHT22;4203;48.144;14.118;2022-08-21T03:53:08;16.70;99.90
8332;DHT22;4203;48.144;14.118;2022-08-21T03:55:35;16.70;99.90
8332;DHT22;4203;48.144;14.118;2022-08-21T03:58:04;16.70;99.90
8332;DHT22;4203;48.144;14.118;2022-08-21T04:00:31;16.70;99.90
8332;DHT22;4203;48.144;14.118;2022-08-21T04:02:59;16.70;99.90
8332;DHT22;4203;48.144;14.118;2022-08-21T04:05:26;16.60;99.90
8332;DHT22;4203;48.144;14.118;2022-08-21T04:07:56;16.60;99.90
8332;DHT22;4203;48.144;14.118;2022-08-21T04:10:25;16.60;99.90
8332;DHT22;4203;48.144;14.118;2022-08-21T04:12:53;16.60;99.90
8332;DHT22;4203;48.144;14.118;2022-08-21T04:15:23;16.60;99.90
8332;DHT22;4203;48.144;14.118;2022-08-21T04:17:50;16.60;99.90
8332;DHT22;4203;48.144;14.118;2022-08-21T04:20:19;16.60;99.90
8332;DHT22;4203;48.144;14.118;2022-08-21T04:22:47;16.60;99.90
8332;DHT22;4203;48.144;14.118;2022-08-21T04:25:16;16.60;99.90
8332;DHT22;4203;48.144;14.118;2022-08-21T04:27:44;16.60;99.90
8332;DHT22;4203;48.144;14.118;2022-08-21T04:30:13;16.60;99.90
8332;DHT22;4203;48.144;14.118;2022-08-21T04:32:44;16.60;99.90
8332;DHT22;4203;48.144;14.118;2022-08-21T04:35:12;16.60;99.90
8332;DHT22;4203;48.144;14.118;2022-08-21T04:37:40;16.60;99.90
8332;DHT22;4203;48.144;14.118;2022-08-21T04:40:08;16.60;99.90
8332;DHT22;4203;48.144;14.118;2022-08-21T04:42:42;16.70;99.90
8332;DHT22;4203;48.144;14.118;2022-08-21T04:45:16;16.70;99.90
8332;DHT22;4203;48.144;14.118;2022-08-21T04:47:48;16.70;99.90
8332;DHT22;4203;48.144;14.118;2022-08-21T04:50:15;16.70;99.90
8332;DHT22;4203;48.144;14.118;2022-08-21T04:52:43;16.70;99.90
8332;DHT22;4203;48.144;14.118;2022-08-21T04:55:10;16.70;99.90
8332;DHT22;4203;48.144;14.118;2022-08-21T04:57:39;16.70;99.90
8332;DHT22;4203;48.144;14.118;2022-08-21T05:00:08;16.70;99.90
8332;DHT22;4203;48.144;14.118;2022-08-21T05:02:38;16.80;99.90
8332;DHT22;4203;48.144;14.118;2022-08-21T05:05:08;16.80;99.90
8332;DHT22;4203;48.144;14.118;2022-08-21T05:07:35;16.80;99.90
8332;DHT22;4203;48.144;14.118;2022-08-21T05:10:04;16.90;99.90
8332;DHT22;4203;48.144;14.118;2022-08-21T05:12:33;16.90;99.90
8332;DHT22;4203;48.144;14.118;2022-08-21T05:15:02;16.90;99.90
8332;DHT22;4203;48.144;14.118;2022-08-21T05:17:29;16.90;99.90
8332;DHT22;4203;48.144;14.118;2022-08-21T05:19:56;16.90;99.90
8332;DHT22;4203;48.144;14.118;2022-08-21T05:22:25;16.90;99.90
8332;DHT22;4203;48.144;14.118;2022-08-21T05:24:52;17.00;99.90
8332;DHT22;4203;48.144;14.118;2022-08-21T05:27:19;17.00;99.90
8332;DHT22;4203;48.144;14.118;2022-08-21T05:29:46;17.00;99.90
8332;DHT22;4203;48.144;14.118;2022-08-21T05:32:14;17.00;99.90
8332;DHT22;4203;48.144;14.118;2022-08-21T05:34:41;17.10;99.90
8332;DHT22;4203;48.144;14.118;2022-08-21T05:37:11;17.10;99.90
8332;DHT22;4203;48.144;14.118;2022-08-21T05:39:40;17.20;99.90
8332;DHT22;4203;48.144;14.118;2022-08-21T05:42:08;17.10;99.90
8332;DHT22;4203;48.144;14.118;2022-08-21T05:44:35;17.10;99.90
8332;DHT22;4203;48.144;14.118;2022-08-21T05:47:04;17.10;99.90
8332;DHT22;4203;48.144;14.118;2022-08-21T05:49:31;17.10;99.90
8332;DHT22;4203;48.144;14.118;2022-08-21T05:51:58;17.10;99.90
8332;DHT22;4203;48.144;14.118;2022-08-21T05:54:26;17.20;99.90
8332;DHT22;4203;48.144;14.118;2022-08-21T05:56:55;17.20;99.90
8332;DHT22;4203;48.144;14.118;2022-08-21T05:59:23;17.20;99.90
8332;DHT22;4203;48.144;14.118;2022-08-21T06:01:50;17.30;99.90
8332;DHT22;4203;48.144;14.118;2022-08-21T06:04:18;17.30;99.90
8332;DHT22;4203;48.144;14.118;2022-08-21T06:06:45;17.30;99.90
8332;DHT22;4203;48.144;14.118;2022-08-21T06:09:13;17.40;99.90
8332;DHT22;4203;48.144;14.118;2022-08-21T06:11:40;17.40;99.90
8332;DHT22;4203;48.144;14.118;2022-08-21T06:14:09;17.50;99.90
8332;DHT22;4203;48.144;14.118;2022-08-21T06:16:36;17.50;99.90
8332;DHT22;4203;48.144;14.118;2022-08-21T06:19:04;17.50;99.90
8332;DHT22;4203;48.144;14.118;2022-08-21T06:21:31;17.50;99.90
8332;DHT22;4203;48.144;14.118;2022-08-21T06:23:58;17.50;99.90
8332;DHT22;4203;48.144;14.118;2022-08-21T06:26:26;17.50;99.90
8332;DHT22;4203;48.144;14.118;2022-08-21T06:28:53;17.50;99.90
8332;DHT22;4203;48.144;14.118;2022-08-21T06:31:25;17.60;99.90
8332;DHT22;4203;48.144;14.118;2022-08-21T06:33:52;17.60;99.90
8332;DHT22;4203;48.144;14.118;2022-08-21T06:36:20;17.60;99.90
8332;DHT22;4203;48.144;14.118;2022-08-21T06:38:47;17.60;99.90
8332;DHT22;4203;48.144;14.118;2022-08-21T06:41:14;17.70;99.90
8332;DHT22;4203;48.144;14.118;2022-08-21T06:43:42;17.70;99.90
8332;DHT22;4203;48.144;14.118;2022-08-21T06:46:09;17.70;99.90
8332;DHT22;4203;48.144;14.118;2022-08-21T06:48:38;17.80;99.90
8332;DHT22;4203;48.144;14.118;2022-08-21T06:51:05;17.80;99.90
8332;DHT22;4203;48.144;14.118;2022-08-21T06:53:33;17.80;99.90
8332;DHT22;4203;48.144;14.118;2022-08-21T06:56:00;17.90;99.90
8332;DHT22;4203;48.144;14.118;2022-08-21T06:58:27;17.90;99.90
8332;DHT22;4203;48.144;14.118;2022-08-21T07:00:56;18.00;99.90
8332;DHT22;4203;48.144;14.118;2022-08-21T07:03:25;18.00;99.90
8332;DHT22;4203;48.144;14.118;2022-08-21T07:05:54;18.00;99.90
8332;DHT22;4203;48.144;14.118;2022-08-21T07:08:23;18.00;99.90
8332;DHT22;4203;48.144;14.118;2022-08-21T07:10:54;18.10;99.90
8332;DHT22;4203;48.144;14.118;2022-08-21T07:13:22;18.00;99.90
8332;DHT22;4203;48.144;14.118;2022-08-21T07:15:49;18.10;99.90
8332;DHT22;4203;48.144;14.118;2022-08-21T07:18:17;18.10;99.90
8332;DHT22;4203;48.144;14.118;2022-08-21T07:20:45;18.10;99.90
8332;DHT22;4203;48.144;14.118;2022-08-21T07:23:18;18.10;99.90
8332;DHT22;4203;48.144;14.118;2022-08-21T07:25:46;18.10;99.90
8332;DHT22;4203;48.144;14.118;2022-08-21T07:28:14;18.10;99.90
8332;DHT22;4203;48.144;14.118;2022-08-21T07:30:41;17.90;99.90
8332;DHT22;4203;48.144;14.118;2022-08-21T07:33:09;18.20;99.90
8332;DHT22;4203;48.144;14.118;2022-08-21T07:35:36;18.30;99.90
8332;DHT22;4203;48.144;14.118;2022-08-21T07:38:03;18.40;99.90
8332;DHT22;4203;48.144;14.118;2022-08-21T07:40:33;18.30;99.90
8332;DHT22;4203;48.144;14.118;2022-08-21T07:43:00;18.40;99.90
8332;DHT22;4203;48.144;14.118;2022-08-21T07:45:27;18.50;99.90
8332;DHT22;4203;48.144;14.118;2022-08-21T07:47:55;18.50;99.90
8332;DHT22;4203;48.144;14.118;2022-08-21T07:50:23;18.50;99.90
8332;DHT22;4203;48.144;14.118;2022-08-21T07:52:50;18.60;99.90
8332;DHT22;4203;48.144;14.118;2022-08-21T07:55:19;18.60;99.90
8332;DHT22;4203;48.144;14.118;2022-08-21T07:57:48;18.70;99.90
8332;DHT22;4203;48.144;14.118;2022-08-21T08:00:18;18.80;99.90
8332;DHT22;4203;48.144;14.118;2022-08-21T08:02:48;18.90;99.90
8332;DHT22;4203;48.144;14.118;2022-08-21T08:05:18;18.90;99.90
8332;DHT22;4203;48.144;14.118;2022-08-21T08:07:45;18.90;99.90
8332;DHT22;4203;48.144;14.118;2022-08-21T08:10:14;18.90;99.90
8332;DHT22;4203;48.144;14.118;2022-08-21T08:12:42;19.00;99.90
8332;DHT22;4203;48.144;14.118;2022-08-21T08:15:17;19.10;99.90
8332;DHT22;4203;48.144;14.118;2022-08-21T08:17:45;19.20;99.90
8332;DHT22;4203;48.144;14.118;2022-08-21T08:20:14;19.40;99.90
8332;DHT22;4203;48.144;14.118;2022-08-21T08:22:42;19.50;99.90
8332;DHT22;4203;48.144;14.118;2022-08-21T08:25:10;19.60;99.90
8332;DHT22;4203;48.144;14.118;2022-08-21T08:27:38;19.60;99.90
8332;DHT22;4203;48.144;14.118;2022-08-21T08:30:07;19.70;99.90
8332;DHT22;4203;48.144;14.118;2022-08-21T08:32:36;19.70;99.90
8332;DHT22;4203;48.144;14.118;2022-08-21T08:35:05;19.70;99.90
8332;DHT22;4203;48.144;14.118;2022-08-21T08:37:33;19.60;99.90
8332;DHT22;4203;48.144;14.118;2022-08-21T08:40:04;19.60;99.90
8332;DHT22;4203;48.144;14.118;2022-08-21T08:42:34;19.60;99.90
8332;DHT22;4203;48.144;14.118;2022-08-21T08:45:07;19.40;99.90
8332;DHT22;4203;48.144;14.118;2022-08-21T08:47:39;19.20;99.90
8332;DHT22;4203;48.144;14.118;2022-08-21T08:50:11;19.20;99.90
8332;DHT22;4203;48.144;14.118;2022-08-21T08:52:43;19.20;99.90
8332;DHT22;4203;48.144;14.118;2022-08-21T08:55:15;19.20;99.90
8332;DHT22;4203;48.144;14.118;2022-08-21T08:57:46;19.10;99.90
8332;DHT22;4203;48.144;14.118;2022-08-21T09:00:16;19.10;99.90
8332;DHT22;4203;48.144;14.118;2022-08-21T09:02:46;19.20;99.90
8332;DHT22;4203;48.144;14.118;2022-08-21T09:05:21;19.20;99.90
8332;DHT22;4203;48.144;14.118;2022-08-21T09:07:58;19.20;99.90
8332;DHT22;4203;48.144;14.118;2022-08-21T09:10:34;19.30;99.90
8332;DHT22;4203;48.144;14.118;2022-08-21T09:13:10;19.20;99.90
8332;DHT22;4203;48.144;14.118;2022-08-21T09:15:51;19.30;99.90
8332;DHT22;4203;48.144;14.118;2022-08-21T09:18:30;19.30;99.90
8332;DHT22;4203;48.144;14.118;2022-08-21T09:21:12;19.30;99.90
8332;DHT22;4203;48.144;14.118;2022-08-21T09:23:49;19.40;99.90
8332;DHT22;4203;48.144;14.118;2022-08-21T09:26:21;19.50;99.90
8332;DHT22;4203;48.144;14.118;2022-08-21T09:28:53;19.50;99.90
8332;DHT22;4203;48.144;14.118;2022-08-21T09:31:23;19.50;99.90
8332;DHT22;4203;48.144;14.118;2022-08-21T09:33:57;19.40;99.90
8332;DHT22;4203;48.144;14.118;2022-08-21T09:36:30;19.40;99.90
8332;DHT22;4203;48.144;14.118;2022-08-21T09:38:59;19.40;99.90
8332;DHT22;4203;48.144;14.118;2022-08-21T09:41:28;19.40;99.90
8332;DHT22;4203;48.144;14.118;2022-08-21T09:43:57;19.40;99.90
8332;DHT22;4203;48.144;14.118;2022-08-21T09:46:26;19.30;99.90
8332;DHT22;4203;48.144;14.118;2022-08-21T09:48:56;19.30;99.90
8332;DHT22;4203;48.144;14.118;2022-08-21T09:51:26;19.40;99.90
8332;DHT22;4203;48.144;14.118;2022-08-21T09:53:56;19.40;99.90
8332;DHT22;4203;48.144;14.118;2022-08-21T09:56:29;19.30;99.90
8332;DHT22;4203;48.144;14.118;2022-08-21T09:59:17;19.40;99.90
8332;DHT22;4203;48.144;14.118;2022-08-21T10:01:46;19.30;99.90
8332;DHT22;4203;48.144;14.118;2022-08-21T10:04:20;19.30;99.90
8332;DHT22;4203;48.144;14.118;2022-08-21T10:06:48;19.20;99.90
8332;DHT22;4203;48.144;14.118;2022-08-21T10:09:17;19.30;99.90
8332;DHT22;4203;48.144;14.118;2022-08-21T10:11:52;19.30;99.90
8332;DHT22;4203;48.144;14.118;2022-08-21T10:14:37;19.30;99.90
8332;DHT22;4203;48.144;14.118;2022-08-21T10:17:12;19.30;99.90
8332;DHT22;4203;48.144;14.118;2022-08-21T10:19:48;19.40;99.90
8332;DHT22;4203;48.144;14.118;2022-08-21T10:22:26;19.60;99.90
8332;DHT22;4203;48.144;14.118;2022-08-21T10:25:08;19.80;99.90
8332;DHT22;4203;48.144;14.118;2022-08-21T10:27:44;19.80;99.90
8332;DHT22;4203;48.144;14.118;2022-08-21T10:30:16;19.90;99.90
8332;DHT22;4203;48.144;14.118;2022-08-21T10:32:59;20.10;99.90
8332;DHT22;4203;48.144;14.118;2022-08-21T10:35:34;20.20;99.90
8332;DHT22;4203;48.144;14.118;2022-08-21T10:41:15;20.90;99.90
8332;DHT22;4203;48.144;14.118;2022-08-21T10:43:50;21.30;99.90
8332;DHT22;4203;48.144;14.118;2022-08-21T10:46:26;21.70;99.90
8332;DHT22;4203;48.144;14.118;2022-08-21T10:48:59;22.40;99.90
8332;DHT22;4203;48.144;14.118;2022-08-21T10:51:37;22.80;99.90
8332;DHT22;4203;48.144;14.118;2022-08-21T10:54:12;23.20;99.90
8332;DHT22;4203;48.144;14.118;2022-08-21T10:56:43;23.60;99.90
8332;DHT22;4203;48.144;14.118;2022-08-21T10:59:26;24.00;99.90
8332;DHT22;4203;48.144;14.118;2022-08-21T11:01:59;24.20;99.90
8332;DHT22;4203;48.144;14.118;2022-08-21T11:04:32;24.20;99.90
8332;DHT22;4203;48.144;14.118;2022-08-21T11:07:06;24.80;99.90
8332;DHT22;4203;48.144;14.118;2022-08-21T11:09:35;25.10;99.90
8332;DHT22;4203;48.144;14.118;2022-08-21T11:12:09;25.30;99.90
8332;DHT22;4203;48.144;14.118;2022-08-21T11:14:51;25.10;99.90
8332;DHT22;4203;48.144;14.118;2022-08-21T11:17:24;25.20;99.90
8332;DHT22;4203;48.144;14.118;2022-08-21T11:19:59;25.10;99.90
8332;DHT22;4203;48.144;14.118;2022-08-21T11:22:36;25.00;99.90
8332;DHT22;4203;48.144;14.118;2022-08-21T11:25:09;25.00;99.90
8332;DHT22;4203;48.144;14.118;2022-08-21T11:27:41;25.10;99.90
8332;DHT22;4203;48.144;14.118;2022-08-21T11:30:11;25.10;99.90
8332;DHT22;4203;48.144;14.118;2022-08-21T11:32:54;25.10;99.90
8332;DHT22;4203;48.144;14.118;2022-08-21T11:35:32;25.00;99.90
8332;DHT22;4203;48.144;14.118;2022-08-21T11:38:15;24.90;99.90
8332;DHT22;4203;48.144;14.118;2022-08-21T11:40:57;24.80;99.90
8332;DHT22;4203;48.144;14.118;2022-08-21T11:43:35;25.00;99.90
8332;DHT22;4203;48.144;14.118;2022-08-21T11:46:15;25.00;99.90
8332;DHT22;4203;48.144;14.118;2022-08-21T11:48:53;25.20;99.90
8332;DHT22;4203;48.144;14.118;2022-08-21T11:51:26;25.30;99.90
8332;DHT22;4203;48.144;14.118;2022-08-21T11:54:01;25.10;99.90
8332;DHT22;4203;48.144;14.118;2022-08-21T11:56:33;24.80;99.90
8332;DHT22;4203;48.144;14.118;2022-08-21T11:59:05;24.40;99.90
8332;DHT22;4203;48.144;14.118;2022-08-21T12:01:37;24.00;99.90
8332;DHT22;4203;48.144;14.118;2022-08-21T12:04:10;23.50;99.90
8332;DHT22;4203;48.144;14.118;2022-08-21T12:06:43;23.10;99.90
8332;DHT22;4203;48.144;14.118;2022-08-21T12:09:31;22.60;99.90
8332;DHT22;4203;48.144;14.118;2022-08-21T12:12:09;22.10;99.90
8332;DHT22;4203;48.144;14.118;2022-08-21T12:14:40;21.70;99.90
8332;DHT22;4203;48.144;14.118;2022-08-21T12:17:16;21.30;99.90
8332;DHT22;4203;48.144;14.118;2022-08-21T12:19:44;21.00;99.90
8332;DHT22;4203;48.144;14.118;2022-08-21T12:22:13;20.70;99.90
8332;DHT22;4203;48.144;14.118;2022-08-21T12:24:44;20.40;99.90
8332;DHT22;4203;48.144;14.118;2022-08-21T12:27:21;20.20;99.90
8332;DHT22;4203;48.144;14.118;2022-08-21T12:29:54;19.90;99.90
8332;DHT22;4203;48.144;14.118;2022-08-21T12:32:27;19.80;99.90
8332;DHT22;4203;48.144;14.118;2022-08-21T12:35:05;19.50;99.90
8332;DHT22;4203;48.144;14.118;2022-08-21T12:37:38;19.30;99.90
8332;DHT22;4203;48.144;14.118;2022-08-21T12:40:21;19.20;99.90
8332;DHT22;4203;48.144;14.118;2022-08-21T12:42:51;19.00;99.90
8332;DHT22;4203;48.144;14.118;2022-08-21T12:45:23;18.90;99.90
8332;DHT22;4203;48.144;14.118;2022-08-21T12:47:56;18.80;99.90
8332;DHT22;4203;48.144;14.118;2022-08-21T12:50:31;18.50;99.90
8332;DHT22;4203;48.144;14.118;2022-08-21T12:53:05;18.40;99.90
8332;DHT22;4203;48.144;14.118;2022-08-21T12:55:41;18.30;99.90
8332;DHT22;4203;48.144;14.118;2022-08-21T12:58:17;18.30;99.90
8332;DHT22;4203;48.144;14.118;2022-08-21T13:00:49;18.30;99.90
8332;DHT22;4203;48.144;14.118;2022-08-21T13:03:17;18.40;99.90
8332;DHT22;4203;48.144;14.118;2022-08-21T13:05:44;18.40;99.90
8332;DHT22;4203;48.144;14.118;2022-08-21T13:08:12;18.40;99.90
8332;DHT22;4203;48.144;14.118;2022-08-21T13:10:41;18.40;99.90
8332;DHT22;4203;48.144;14.118;2022-08-21T13:13:21;18.30;99.90
8332;DHT22;4203;48.144;14.118;2022-08-21T13:15:48;18.30;99.90
8332;DHT22;4203;48.144;14.118;2022-08-21T13:18:21;18.30;99.90
8332;DHT22;4203;48.144;14.118;2022-08-21T13:20:49;18.20;99.90
8332;DHT22;4203;48.144;14.118;2022-08-21T13:23:23;18.10;99.90
8332;DHT22;4203;48.144;14.118;2022-08-21T13:25:52;18.10;99.90
8332;DHT22;4203;48.144;14.118;2022-08-21T13:28:19;18.10;99.90
8332;DHT22;4203;48.144;14.118;2022-08-21T13:30:49;18.00;99.90
8332;DHT22;4203;48.144;14.118;2022-08-21T13:33:19;17.90;99.90
8332;DHT22;4203;48.144;14.118;2022-08-21T13:35:51;17.90;99.90
8332;DHT22;4203;48.144;14.118;2022-08-21T13:38:21;17.90;99.90
8332;DHT22;4203;48.144;14.118;2022-08-21T13:40:53;17.90;99.90
8332;DHT22;4203;48.144;14.118;2022-08-21T13:43:25;17.80;99.90
8332;DHT22;4203;48.144;14.118;2022-08-21T13:45:55;17.70;99.90
8332;DHT22;4203;48.144;14.118;2022-08-21T13:48:25;17.80;99.90
8332;DHT22;4203;48.144;14.118;2022-08-21T13:50:53;17.70;99.90
8332;DHT22;4203;48.144;14.118;2022-08-21T13:53:28;17.70;99.90
8332;DHT22;4203;48.144;14.118;2022-08-21T13:55:58;17.70;99.90
8332;DHT22;4203;48.144;14.118;2022-08-21T13:58:26;17.80;99.90
8332;DHT22;4203;48.144;14.118;2022-08-21T14:00:55;17.80;99.90
8332;DHT22;4203;48.144;14.118;2022-08-21T14:03:29;17.80;99.90
8332;DHT22;4203;48.144;14.118;2022-08-21T14:05:58;17.90;99.90
8332;DHT22;4203;48.144;14.118;2022-08-21T14:08:31;18.00;99.90
8332;DHT22;4203;48.144;14.118;2022-08-21T14:11:03;18.00;99.90
8332;DHT22;4203;48.144;14.118;2022-08-21T14:13:38;18.00;99.90
8332;DHT22;4203;48.144;14.118;2022-08-21T14:16:16;18.00;99.90
8332;DHT22;4203;48.144;14.118;2022-08-21T14:18:50;18.00;99.90
8332;DHT22;4203;48.144;14.118;2022-08-21T14:21:28;18.10;99.90
8332;DHT22;4203;48.144;14.118;2022-08-21T14:24:08;18.10;99.90
8332;DHT22;4203;48.144;14.118;2022-08-21T14:26:44;18.00;99.90
8332;DHT22;4203;48.144;14.118;2022-08-21T14:29:14;18.00;99.90
8332;DHT22;4203;48.144;14.118;2022-08-21T14:31:42;18.00;99.90
8332;DHT22;4203;48.144;14.118;2022-08-21T14:34:11;18.10;99.90
8332;DHT22;4203;48.144;14.118;2022-08-21T14:36:41;18.20;99.90
8332;DHT22;4203;48.144;14.118;2022-08-21T14:39:09;18.20;99.90
8332;DHT22;4203;48.144;14.118;2022-08-21T14:41:37;18.30;99.90
8332;DHT22;4203;48.144;14.118;2022-08-21T14:44:05;18.40;99.90
8332;DHT22;4203;48.144;14.118;2022-08-21T14:46:34;18.50;99.90
8332;DHT22;4203;48.144;14.118;2022-08-21T14:49:02;18.50;99.90
8332;DHT22;4203;48.144;14.118;2022-08-21T14:51:29;18.40;99.90
8332;DHT22;4203;48.144;14.118;2022-08-21T14:53:56;18.30;99.90
8332;DHT22;4203;48.144;14.118;2022-08-21T14:56:24;18.30;99.90
8332;DHT22;4203;48.144;14.118;2022-08-21T14:58:53;18.30;99.90
8332;DHT22;4203;48.144;14.118;2022-08-21T15:01:22;18.40;99.90
8332;DHT22;4203;48.144;14.118;2022-08-21T15:03:49;18.50;99.90
8332;DHT22;4203;48.144;14.118;2022-08-21T15:06:17;18.50;99.90
8332;DHT22;4203;48.144;14.118;2022-08-21T15:08:46;18.60;99.90
8332;DHT22;4203;48.144;14.118;2022-08-21T15:11:17;18.60;99.90
8332;DHT22;4203;48.144;14.118;2022-08-21T15:13:45;18.70;99.90
8332;DHT22;4203;48.144;14.118;2022-08-21T15:16:14;18.70;99.90
8332;DHT22;4203;48.144;14.118;2022-08-21T15:18:41;18.60;99.90
8332;DHT22;4203;48.144;14.118;2022-08-21T15:21:08;18.60;99.90
8332;DHT22;4203;48.144;14.118;2022-08-21T15:23:35;18.60;99.90
8332;DHT22;4203;48.144;14.118;2022-08-21T15:26:03;18.60;99.90
8332;DHT22;4203;48.144;14.118;2022-08-21T15:28:30;18.70;99.90
8332;DHT22;4203;48.144;14.118;2022-08-21T15:30:59;18.70;99.90
8332;DHT22;4203;48.144;14.118;2022-08-21T15:33:28;18.70;99.90
8332;DHT22;4203;48.144;14.118;2022-08-21T15:35:56;18.80;99.90
8332;DHT22;4203;48.144;14.118;2022-08-21T15:38:23;18.80;99.90
8332;DHT22;4203;48.144;14.118;2022-08-21T15:40:50;18.90;99.90
8332;DHT22;4203;48.144;14.118;2022-08-21T15:43:22;18.90;99.90
8332;DHT22;4203;48.144;14.118;2022-08-21T15:45:50;18.90;99.90
8332;DHT22;4203;48.144;14.118;2022-08-21T15:48:18;19.00;99.90
8332;DHT22;4203;48.144;14.118;2022-08-21T15:50:47;18.90;99.90
8332;DHT22;4203;48.144;14.118;2022-08-21T15:53:14;18.90;99.90
8332;DHT22;4203;48.144;14.118;2022-08-21T15:55:41;18.90;99.90
8332;DHT22;4203;48.144;14.118;2022-08-21T15:58:12;18.90;99.90
8332;DHT22;4203;48.144;14.118;2022-08-21T16:00:40;18.80;99.90
8332;DHT22;4203;48.144;14.118;2022-08-21T16:03:11;18.80;99.90
8332;DHT22;4203;48.144;14.118;2022-08-21T16:05:40;18.80;99.90